createdAt,value
2022-11-10T00:03:40.361Z,32.00
2022-11-10T00:06:10.804Z,33.97
2022-11-10T00:08:37.595Z,34.33
2022-11-10T00:11:08.302Z,41.28
2022-11-10T00:13:56.659Z,38.13
2022-11-10T00:16:42.115Z,37.97
2022-11-10T00:19:09.089Z,33.03
2022-11-10T00:21:37.286Z,38.05
2022-11-10T00:24:04.710Z,35.67
2022-11-10T00:26:31.947Z,35.75
2022-11-10T00:28:58.761Z,37.90
2022-11-10T00:31:25.537Z,35.63
2022-11-10T00:33:52.252Z,38.47
2022-11-10T00:36:19.040Z,38.17
2022-11-10T00:38:45.786Z,40.22
2022-11-10T00:41:13.183Z,31.23
2022-11-10T00:43:39.964Z,38.67
2022-11-10T00:46:06.702Z,32.35
2022-11-10T00:48:33.517Z,35.55
2022-11-10T00:51:00.270Z,33.78
2022-11-10T00:53:27.006Z,33.42
2022-11-10T00:55:53.829Z,32.70
2022-11-10T00:58:20.713Z,34.53
2022-11-10T01:00:47.621Z,34.85
2022-11-10T01:03:16.058Z,32.22
2022-11-10T01:05:43.443Z,33.30
2022-11-10T01:08:10.835Z,32.38
2022-11-10T01:10:37.644Z,33.00
2022-11-10T01:13:04.372Z,33.70
2022-11-10T01:15:31.311Z,36.15
2022-11-10T01:17:58.005Z,31.95
2022-11-10T01:20:25.862Z,35.72
2022-11-10T01:22:52.727Z,31.60
2022-11-10T01:25:19.573Z,36.60
2022-11-10T01:27:46.621Z,34.70
2022-11-10T01:30:13.444Z,34.83
2022-11-10T01:32:40.292Z,33.25
2022-11-10T01:35:08.531Z,32.65
2022-11-10T01:37:35.513Z,34.42
2022-11-10T01:40:02.689Z,30.30
2022-11-10T01:42:44.533Z,33.28
2022-11-10T01:45:23.565Z,30.38
2022-11-10T01:47:52.580Z,30.70
2022-11-10T01:50:22.123Z,30.85
2022-11-10T01:52:52.422Z,31.60
2022-11-10T01:55:19.276Z,29.58
2022-11-10T01:57:46.296Z,34.22
2022-11-10T02:00:13.410Z,29.42
2022-11-10T02:02:46.662Z,31.08
2022-11-10T02:05:13.679Z,31.83
2022-11-10T02:07:40.802Z,33.53
2022-11-10T02:10:16.263Z,27.83
2022-11-10T02:12:44.131Z,29.55
2022-11-10T02:15:14.503Z,30.40
2022-11-10T02:17:42.445Z,32.88
2022-11-10T02:20:12.224Z,32.80
2022-11-10T02:22:39.100Z,33.85
2022-11-10T02:25:06.672Z,35.55
2022-11-10T02:27:33.402Z,34.47
2022-11-10T02:30:01.767Z,34.88
2022-11-10T02:32:28.888Z,32.55
2022-11-10T02:34:55.741Z,33.17
2022-11-10T02:37:22.533Z,32.65
2022-11-10T02:39:49.265Z,30.73
2022-11-10T02:42:16.132Z,31.35
2022-11-10T02:44:43.175Z,28.15
2022-11-10T02:47:10.194Z,28.58
2022-11-10T02:49:36.914Z,27.95
2022-11-10T02:52:03.889Z,28.02
2022-11-10T02:54:30.652Z,31.88
2022-11-10T02:56:57.335Z,32.42
2022-11-10T02:59:24.076Z,28.92
2022-11-10T03:01:50.831Z,29.65
2022-11-10T03:04:17.553Z,32.00
2022-11-10T03:06:44.408Z,29.20
2022-11-10T03:09:11.242Z,28.45
2022-11-10T03:11:37.974Z,23.90
2022-11-10T03:14:04.731Z,26.70
2022-11-10T03:16:31.514Z,25.52
2022-11-10T03:18:58.225Z,31.50
2022-11-10T03:21:24.934Z,27.48
2022-11-10T03:23:51.640Z,25.65
2022-11-10T03:26:18.372Z,29.33
2022-11-10T03:28:45.080Z,26.77
2022-11-10T03:31:11.813Z,24.77
2022-11-10T03:33:38.535Z,26.67
2022-11-10T03:36:05.522Z,24.27
2022-11-10T03:38:32.214Z,23.35
2022-11-10T03:43:45.621Z,23.38
2022-11-10T03:46:12.602Z,26.33
2022-11-10T03:48:39.311Z,25.88
2022-11-10T03:51:06.193Z,28.02
2022-11-10T03:53:33.031Z,23.63
2022-11-10T03:56:04.541Z,27.92
2022-11-10T03:58:31.443Z,27.25
2022-11-10T04:00:58.236Z,29.33
2022-11-10T04:03:25.867Z,26.60
2022-11-10T04:06:11.461Z,25.20
2022-11-10T04:08:56.814Z,25.42
2022-11-10T04:11:41.915Z,27.10
2022-11-10T04:14:27.782Z,27.13
2022-11-10T04:16:55.052Z,29.35
2022-11-10T04:19:21.843Z,26.42
2022-11-10T04:21:48.719Z,28.83
2022-11-10T04:24:16.290Z,27.42
2022-11-10T04:26:44.100Z,28.73
2022-11-10T04:29:12.349Z,28.27
2022-11-10T04:31:41.090Z,27.50
2022-11-10T04:34:09.867Z,25.23
2022-11-10T04:36:39.053Z,29.65
2022-11-10T04:39:06.774Z,30.20
2022-11-10T04:41:33.960Z,28.65
2022-11-10T04:44:01.473Z,29.52
2022-11-10T04:46:32.151Z,31.67
2022-11-10T04:48:59.823Z,27.15
2022-11-10T04:51:31.497Z,27.92
2022-11-10T04:53:58.882Z,27.50
2022-11-10T04:56:26.644Z,24.48
2022-11-10T04:58:54.492Z,26.98
2022-11-10T05:01:27.577Z,27.35
2022-11-10T05:03:55.421Z,27.42
2022-11-10T05:06:22.873Z,25.45
2022-11-10T05:08:50.108Z,27.63
2022-11-10T05:11:16.960Z,25.98
2022-11-10T05:13:45.116Z,26.83
2022-11-10T05:16:12.447Z,26.60
2022-11-10T05:18:39.158Z,25.42
2022-11-10T05:21:06.084Z,24.65
2022-11-10T05:23:38.778Z,27.45
2022-11-10T05:26:16.485Z,29.88
2022-11-10T05:28:45.053Z,23.95
2022-11-10T05:31:12.644Z,22.73
2022-11-10T05:33:39.595Z,23.85
2022-11-10T05:36:07.852Z,25.05
2022-11-10T05:38:40.316Z,24.05
2022-11-10T05:41:09.793Z,22.35
2022-11-10T05:43:36.494Z,22.73
2022-11-10T05:46:03.337Z,22.90
2022-11-10T05:48:30.014Z,23.08
2022-11-10T05:50:56.692Z,22.60
2022-11-10T05:53:23.873Z,24.60
2022-11-10T05:55:50.837Z,25.83
2022-11-10T05:58:17.639Z,21.33
2022-11-10T06:00:44.327Z,27.38
2022-11-10T06:03:17.049Z,21.98
2022-11-10T06:05:44.461Z,21.67
2022-11-10T06:08:11.557Z,25.55
2022-11-10T06:10:39.196Z,19.63
2022-11-10T06:13:06.636Z,18.38
2022-11-10T06:15:33.674Z,21.02
2022-11-10T06:18:00.625Z,17.70
2022-11-10T06:20:27.432Z,20.42
2022-11-10T06:23:08.083Z,19.02
2022-11-10T06:25:36.570Z,19.63
2022-11-10T06:28:04.447Z,17.23
2022-11-10T06:30:33.736Z,17.88
2022-11-10T06:33:00.567Z,17.92
2022-11-10T06:35:27.775Z,22.00
2022-11-10T06:38:06.101Z,15.90
2022-11-10T06:40:33.845Z,16.67
2022-11-10T06:43:01.604Z,15.95
2022-11-10T06:45:28.970Z,16.65
2022-11-10T06:48:04.801Z,12.80
2022-11-10T06:50:32.222Z,15.40
2022-11-10T06:53:00.384Z,15.70
2022-11-10T06:55:27.298Z,15.93
2022-11-10T06:57:54.493Z,14.63
2022-11-10T07:00:22.193Z,15.25
2022-11-10T07:02:48.955Z,16.80
2022-11-10T07:05:15.861Z,14.82
2022-11-10T07:07:42.646Z,14.27
2022-11-10T07:10:09.687Z,13.13
2022-11-10T07:12:36.595Z,13.45
2022-11-10T07:15:03.943Z,15.63
2022-11-10T07:17:30.673Z,15.65
2022-11-10T07:19:57.521Z,15.77
2022-11-10T07:22:25.062Z,14.43
2022-11-10T07:24:51.805Z,17.23
2022-11-10T07:27:18.648Z,15.10
2022-11-10T07:29:45.449Z,14.23
2022-11-10T07:32:12.166Z,13.27
2022-11-10T07:34:38.851Z,13.57
2022-11-10T07:37:05.861Z,14.52
2022-11-10T07:39:32.608Z,15.88
2022-11-10T07:41:59.298Z,16.05
2022-11-10T07:44:27.842Z,18.75
2022-11-10T07:46:54.596Z,14.65
2022-11-10T07:49:21.382Z,15.25
2022-11-10T07:51:48.053Z,15.63
2022-11-10T07:54:14.752Z,14.65
2022-11-10T07:56:42.522Z,15.30
2022-11-10T07:59:09.392Z,14.18
2022-11-10T08:01:36.084Z,14.68
2022-11-10T08:04:02.841Z,15.77
2022-11-10T08:06:34.910Z,15.82
2022-11-10T08:09:02.832Z,14.90
2022-11-10T08:11:29.534Z,16.23
2022-11-10T08:13:56.196Z,16.55
2022-11-10T08:16:22.988Z,15.57
2022-11-10T08:18:49.720Z,17.27
2022-11-10T08:21:16.381Z,16.80
2022-11-10T08:23:43.167Z,15.48
2022-11-10T08:26:09.853Z,14.82
2022-11-10T08:28:36.623Z,15.48
2022-11-10T08:31:05.684Z,16.15
2022-11-10T08:33:33.050Z,16.35
2022-11-10T08:36:01.320Z,15.65
2022-11-10T08:38:28.051Z,17.35
2022-11-10T08:40:57.588Z,16.38
2022-11-10T08:43:25.131Z,17.20
2022-11-10T08:45:58.858Z,16.90
2022-11-10T08:48:25.711Z,17.00
2022-11-10T08:50:52.518Z,15.70
2022-11-10T08:53:22.859Z,16.83
2022-11-10T08:55:51.132Z,15.70
2022-11-10T08:58:20.096Z,16.05
2022-11-10T09:00:47.243Z,16.52
2022-11-10T09:03:20.029Z,16.40
2022-11-10T09:05:47.815Z,14.93
2022-11-10T09:08:15.583Z,14.57
2022-11-10T09:10:47.659Z,16.38
2022-11-10T09:13:16.053Z,15.07
2022-11-10T09:15:44.044Z,13.95
2022-11-10T09:18:13.325Z,17.58
2022-11-10T09:20:40.499Z,16.90
2022-11-10T09:23:09.798Z,16.23
2022-11-10T09:25:37.446Z,16.23
2022-11-10T09:28:04.714Z,18.15
2022-11-10T09:30:32.381Z,20.45
2022-11-10T09:33:00.546Z,18.95
2022-11-10T09:35:27.746Z,20.60
2022-11-10T09:37:54.525Z,17.30
2022-11-10T09:40:39.594Z,17.50
2022-11-10T09:43:14.611Z,17.95
2022-11-10T09:45:47.122Z,16.35
2022-11-10T09:48:24.670Z,17.38
2022-11-10T09:50:57.274Z,17.45
2022-11-10T09:53:47.874Z,20.75
2022-11-10T09:56:19.718Z,22.77
2022-11-10T09:58:46.926Z,19.27
2022-11-10T10:01:26.153Z,22.10
2022-11-10T10:04:16.752Z,18.52
2022-11-10T10:07:10.220Z,17.88
2022-11-10T10:10:01.235Z,18.55
2022-11-10T10:12:58.791Z,18.70
2022-11-10T10:16:02.576Z,21.98
2022-11-10T10:19:15.228Z,19.92
2022-11-10T10:21:50.461Z,25.20
2022-11-10T10:24:22.055Z,22.90
2022-11-10T10:26:55.424Z,22.85
2022-11-10T10:29:49.460Z,23.52
2022-11-10T10:32:17.944Z,26.35
2022-11-10T10:34:46.508Z,26.85
2022-11-10T10:37:22.650Z,24.55
2022-11-10T10:39:52.287Z,23.52
2022-11-10T10:42:31.447Z,27.63
2022-11-10T10:45:27.733Z,27.93
2022-11-10T10:47:57.179Z,28.52
2022-11-10T10:50:28.772Z,28.05
2022-11-10T10:53:17.811Z,29.40
2022-11-10T10:58:26.520Z,29.35
2022-11-10T11:01:01.620Z,27.40
2022-11-10T11:03:52.122Z,31.08
2022-11-10T11:06:33.443Z,28.15
2022-11-10T11:09:15.993Z,23.17
2022-11-10T11:11:45.489Z,24.08
2022-11-10T11:14:27.376Z,27.48
2022-11-10T11:16:59.641Z,28.02
2022-11-10T11:19:37.903Z,26.40
2022-11-10T11:22:26.448Z,24.88
2022-11-10T11:25:05.267Z,29.38
2022-11-10T11:27:32.013Z,27.35
2022-11-10T11:30:06.353Z,31.00
2022-11-10T11:32:45.346Z,27.38
2022-11-10T11:35:31.889Z,27.83
2022-11-10T11:38:16.014Z,27.27
2022-11-10T11:40:47.701Z,25.90
2022-11-10T11:43:45.453Z,27.67
2022-11-10T11:46:19.094Z,29.40
2022-11-10T11:49:21.340Z,28.42
2022-11-10T11:51:53.898Z,30.95
2022-11-10T11:54:29.845Z,32.72
2022-11-10T11:57:16.075Z,34.25
2022-11-10T11:59:45.510Z,31.23
2022-11-10T12:02:24.175Z,38.00
2022-11-10T12:05:20.322Z,34.30
2022-11-10T12:08:11.621Z,33.35
2022-11-10T12:11:32.450Z,36.92
2022-11-10T12:14:25.666Z,36.25
2022-11-10T12:17:08.889Z,31.08
2022-11-10T12:20:11.720Z,31.23
2022-11-10T12:23:10.924Z,31.00
2022-11-10T12:26:06.921Z,28.05
2022-11-10T12:28:39.824Z,30.60
2022-11-10T12:31:15.548Z,27.45
2022-11-10T12:33:50.052Z,28.23
2022-11-10T12:36:20.406Z,25.00
2022-11-10T12:39:11.885Z,21.83
2022-11-10T12:41:57.580Z,22.85
2022-11-10T12:44:32.228Z,22.08
2022-11-10T12:47:05.346Z,22.70
2022-11-10T12:49:47.420Z,22.92
2022-11-10T12:52:24.547Z,19.05
2022-11-10T12:54:51.496Z,20.70
2022-11-10T12:57:22.599Z,21.40
2022-11-10T13:00:05.445Z,21.23
2022-11-10T13:02:40.583Z,22.40
2022-11-10T13:05:24.741Z,17.50
2022-11-10T13:08:06.464Z,17.15
2022-11-10T13:10:33.321Z,22.23
2022-11-10T13:13:05.763Z,17.13
2022-11-10T13:15:35.554Z,17.25
2022-11-10T13:18:02.830Z,20.38
2022-11-10T13:20:50.214Z,20.02
2022-11-10T13:23:29.761Z,14.73
2022-11-10T13:26:11.365Z,13.73
2022-11-10T13:28:49.171Z,15.95
2022-11-10T13:31:28.038Z,16.85
2022-11-10T13:34:26.992Z,14.48
2022-11-10T13:36:53.765Z,13.80
2022-11-10T13:39:20.701Z,13.43
2022-11-10T13:41:54.391Z,17.05
2022-11-10T13:44:36.358Z,12.65
2022-11-10T13:47:35.151Z,13.10
2022-11-10T13:50:08.703Z,17.10
2022-11-10T13:53:00.131Z,18.77
2022-11-10T13:55:45.247Z,17.17
2022-11-10T13:58:23.312Z,15.38
2022-11-10T14:01:11.321Z,14.73
2022-11-10T14:03:47.901Z,12.95
2022-11-10T14:06:20.593Z,16.27
2022-11-10T14:09:03.148Z,18.30
2022-11-10T14:11:53.447Z,15.48
2022-11-10T14:14:40.823Z,17.60
2022-11-10T14:17:18.414Z,14.82
2022-11-10T14:19:46.177Z,19.65
2022-11-10T14:22:28.089Z,16.25
2022-11-10T14:25:04.487Z,18.85
2022-11-10T14:27:34.528Z,14.40
2022-11-10T14:30:21.893Z,20.17
2022-11-10T14:33:09.273Z,16.42
2022-11-10T14:35:48.962Z,16.77
2022-11-10T14:38:21.231Z,14.85
2022-11-10T14:40:49.313Z,15.90
2022-11-10T14:43:28.166Z,15.43
2022-11-10T14:45:55.037Z,13.75
2022-11-10T14:48:26.640Z,17.85
2022-11-10T14:50:54.045Z,15.68
2022-11-10T14:53:23.451Z,18.13
2022-11-10T14:55:54.708Z,14.73
2022-11-10T14:58:22.312Z,17.80
2022-11-10T15:00:49.756Z,18.38
2022-11-10T15:03:31.440Z,16.13
2022-11-10T15:05:58.328Z,17.25
2022-11-10T15:08:26.696Z,18.85
2022-11-10T15:10:53.808Z,21.42
2022-11-10T15:13:36.126Z,14.10
2022-11-10T15:16:26.254Z,16.00
2022-11-10T15:18:55.029Z,18.23
2022-11-10T15:21:34.300Z,13.45
2022-11-10T15:24:05.694Z,18.63
2022-11-10T15:26:38.495Z,15.32
2022-11-10T15:29:05.483Z,20.60
2022-11-10T15:31:34.070Z,21.85
2022-11-10T15:34:04.632Z,19.20
2022-11-10T15:36:32.663Z,36.40
2022-11-10T15:39:05.537Z,18.85
2022-11-10T15:41:36.352Z,21.50
2022-11-10T15:44:22.251Z,18.05
2022-11-10T15:46:53.836Z,19.73
2022-11-10T15:49:25.589Z,16.08
2022-11-10T15:51:56.987Z,16.00
2022-11-10T15:54:27.113Z,15.88
2022-11-10T15:56:53.854Z,12.45
2022-11-10T15:59:20.657Z,17.35
2022-11-10T16:01:47.506Z,16.27
2022-11-10T16:04:14.242Z,16.35
2022-11-10T16:06:41.156Z,18.73
2022-11-10T16:09:11.202Z,14.95
2022-11-10T16:14:05.902Z,18.35
2022-11-10T16:16:32.651Z,15.68
2022-11-10T16:18:59.434Z,15.80
2022-11-10T16:21:26.517Z,15.05
2022-11-10T16:23:53.473Z,25.48
2022-11-10T16:26:23.901Z,25.58
2022-11-10T16:28:50.797Z,19.95
2022-11-10T16:31:19.522Z,16.83
2022-11-10T16:33:47.104Z,22.38
2022-11-10T16:36:28.036Z,22.15
2022-11-10T16:38:55.631Z,23.73
2022-11-10T16:41:23.062Z,15.07
2022-11-10T16:43:49.949Z,15.75
2022-11-10T16:46:22.984Z,16.27
2022-11-10T16:48:52.869Z,15.77
2022-11-10T16:51:28.832Z,15.55
2022-11-10T16:53:56.035Z,18.75
2022-11-10T16:56:23.269Z,51.75
2022-11-10T16:58:51.117Z,103.80
2022-11-10T17:01:22.596Z,89.80
2022-11-10T17:03:53.461Z,33.22
2022-11-10T17:06:22.041Z,22.08
2022-11-10T17:08:52.417Z,19.42
2022-11-10T17:11:19.498Z,21.45
2022-11-10T17:13:46.381Z,23.58
2022-11-10T17:16:29.872Z,19.58
2022-11-10T17:18:59.135Z,22.38
2022-11-10T17:21:32.493Z,22.92
2022-11-10T17:24:00.958Z,20.05
2022-11-10T17:26:29.214Z,18.10
2022-11-10T17:28:57.115Z,21.92
2022-11-10T17:31:24.413Z,23.92
2022-11-10T17:33:51.537Z,21.77
2022-11-10T17:36:21.701Z,25.10
2022-11-10T17:38:49.162Z,31.63
2022-11-10T17:41:23.785Z,31.05
2022-11-10T17:43:50.967Z,26.10
2022-11-10T17:46:17.807Z,29.13
2022-11-10T17:48:45.694Z,22.70
2022-11-10T17:51:21.602Z,23.73
2022-11-10T17:53:50.822Z,23.80
2022-11-10T17:56:18.266Z,27.13
2022-11-10T17:58:45.362Z,22.42
2022-11-10T18:01:16.695Z,22.30
2022-11-10T18:03:46.744Z,22.70
2022-11-10T18:08:42.891Z,24.10
2022-11-10T18:11:12.864Z,24.52
2022-11-10T18:13:42.217Z,22.08
2022-11-10T18:16:12.070Z,25.80
2022-11-10T18:18:39.615Z,23.50
2022-11-10T18:21:09.211Z,25.67
2022-11-10T18:23:36.522Z,23.95
2022-11-10T18:26:14.062Z,21.73
2022-11-10T18:28:42.309Z,24.27
2022-11-10T18:31:13.231Z,25.92
2022-11-10T18:33:41.149Z,25.98
2022-11-10T18:36:09.350Z,24.10
2022-11-10T18:38:36.544Z,24.23
2022-11-10T18:41:28.193Z,22.75
2022-11-10T18:43:55.782Z,23.35
2022-11-10T18:46:23.236Z,25.02
2022-11-10T18:48:50.868Z,27.17
2022-11-10T18:51:18.472Z,23.05
2022-11-10T18:53:45.657Z,25.20
2022-11-10T18:56:14.979Z,24.75
2022-11-10T18:58:43.264Z,24.40
2022-11-10T19:01:12.117Z,36.80
2022-11-10T19:03:39.717Z,40.10
2022-11-10T19:06:07.818Z,40.40
2022-11-10T19:08:35.261Z,45.90
2022-11-10T19:11:07.527Z,42.70
2022-11-10T19:13:35.553Z,37.47
2022-11-10T19:16:08.562Z,40.30
2022-11-10T19:18:39.027Z,46.20
2022-11-10T19:21:14.564Z,42.88
2022-11-10T19:23:42.884Z,35.92
2022-11-10T19:26:21.885Z,38.15
2022-11-10T19:28:50.407Z,36.40
2022-11-10T19:31:23.100Z,35.53
2022-11-10T19:33:54.322Z,37.95
2022-11-10T19:36:24.183Z,39.35
2022-11-10T19:38:53.662Z,39.15
2022-11-10T19:41:24.044Z,40.80
2022-11-10T19:43:50.980Z,34.00
2022-11-10T19:46:24.682Z,31.63
2022-11-10T19:48:53.561Z,31.73
2022-11-10T19:51:22.872Z,33.80
2022-11-10T19:53:58.181Z,31.67
2022-11-10T19:56:31.469Z,32.20
2022-11-10T19:58:59.740Z,33.88
2022-11-10T20:01:27.879Z,29.27
2022-11-10T20:03:55.437Z,33.47
2022-11-10T20:06:24.483Z,34.63
2022-11-10T20:08:51.933Z,26.58
2022-11-10T20:11:26.061Z,28.15
2022-11-10T20:13:56.557Z,23.00
2022-11-10T20:16:24.181Z,27.10
2022-11-10T20:18:52.331Z,23.85
2022-11-10T20:21:23.903Z,20.58
2022-11-10T20:23:55.710Z,21.98
2022-11-10T20:26:24.781Z,21.15
2022-11-10T20:28:53.999Z,23.55
2022-11-10T20:31:24.773Z,19.77
2022-11-10T20:33:54.479Z,20.70
2022-11-10T20:36:31.762Z,21.40
2022-11-10T20:39:00.779Z,21.13
2022-11-10T20:41:30.007Z,21.30
2022-11-10T20:43:57.432Z,25.30
2022-11-10T20:46:52.773Z,23.02
2022-11-10T20:49:12.221Z,24.98
2022-11-10T20:51:41.049Z,23.27
2022-11-10T20:54:08.992Z,22.95
2022-11-10T20:56:36.037Z,24.20
2022-11-10T20:59:02.953Z,21.88
2022-11-10T21:01:31.009Z,18.75
2022-11-10T21:03:58.621Z,18.15
2022-11-10T21:06:25.765Z,18.67
2022-11-10T21:08:54.152Z,21.83
2022-11-10T21:11:40.160Z,24.38
2022-11-10T21:14:07.312Z,22.10
2022-11-10T21:16:34.390Z,20.98
2022-11-10T21:19:01.784Z,23.30
2022-11-10T21:21:34.691Z,26.95
2022-11-10T21:24:04.131Z,31.13
2022-11-10T21:26:32.774Z,29.70
2022-11-10T21:28:59.777Z,26.73
2022-11-10T21:31:26.651Z,29.38
2022-11-10T21:33:59.436Z,24.90
2022-11-10T21:36:29.481Z,22.83
2022-11-10T21:38:57.856Z,28.67
2022-11-10T21:41:25.401Z,25.60
2022-11-10T21:43:52.217Z,30.15
2022-11-10T21:46:19.413Z,23.13
2022-11-10T21:48:46.152Z,24.88
2022-11-10T21:51:14.499Z,21.98
2022-11-10T21:53:42.034Z,29.23
2022-11-10T21:56:10.382Z,24.58
2022-11-10T21:58:37.894Z,27.42
2022-11-10T22:01:06.238Z,24.35
2022-11-10T22:03:34.586Z,28.40
2022-11-10T22:06:10.620Z,25.38
2022-11-10T22:08:38.629Z,24.40
2022-11-10T22:11:24.812Z,23.15
2022-11-10T22:14:10.462Z,22.27
2022-11-10T22:17:06.670Z,23.95
2022-11-10T22:19:35.255Z,24.10
2022-11-10T22:22:03.931Z,21.45
2022-11-10T22:24:30.840Z,22.05
2022-11-10T22:26:59.880Z,21.77
2022-11-10T22:29:31.837Z,25.33
2022-11-10T22:32:02.629Z,25.85
2022-11-10T22:34:29.836Z,23.15
2022-11-10T22:36:57.228Z,24.30
2022-11-10T22:39:43.931Z,24.55
2022-11-10T22:42:31.942Z,23.88
2022-11-10T22:44:58.817Z,22.13
2022-11-10T22:47:25.623Z,21.02
2022-11-10T22:49:52.320Z,24.23
2022-11-10T22:52:19.059Z,26.60
2022-11-10T22:54:45.800Z,20.98
2022-11-10T22:57:12.571Z,24.83
2022-11-10T22:59:39.257Z,23.55
2022-11-10T23:02:05.959Z,21.13
2022-11-10T23:04:32.738Z,21.42
2022-11-10T23:06:59.499Z,20.60
2022-11-10T23:09:26.260Z,16.48
2022-11-10T23:11:52.959Z,15.65
2022-11-10T23:14:19.651Z,16.92
2022-11-10T23:16:46.418Z,16.08
2022-11-10T23:19:13.188Z,17.88
2022-11-10T23:21:40.005Z,19.40
2022-11-10T23:24:07.098Z,16.27
2022-11-10T23:26:34.989Z,20.35
2022-11-10T23:29:01.783Z,16.80
2022-11-10T23:31:28.812Z,20.63
2022-11-10T23:33:56.771Z,15.93
2022-11-10T23:36:25.448Z,16.92
2022-11-10T23:38:52.431Z,17.85
2022-11-10T23:41:21.182Z,15.30
2022-11-10T23:43:47.980Z,18.00
2022-11-10T23:46:15.320Z,16.08
2022-11-10T23:48:42.622Z,15.07
2022-11-10T23:51:11.843Z,15.07
2022-11-10T23:53:38.662Z,18.27
2022-11-10T23:56:09.005Z,13.95
2022-11-10T23:58:35.840Z,16.33
